KIRK/IRK METAR and TAF weather

Enter ICAO airport designator
Station Type Date Time Source
KIRK METAR 2020/12/06 00:55 UTC NOAA

KIRK 060055Z AUTO 00000KT 10SM CLR 03/M01 A3010 RMK AO2 SLP205 T00331011


Station Type Date Time Source
KIRK Decoded METAR 2020/12/06 00:55 UTC NOAA

KIRKSVILLE REGIONAL AIRPORT , MO, United States (KIRK) 40-06N 092-33W 293M
Dec 05, 2020 - 07:55 PM EST / 2020.12.06 0055 UTC
Wind: Calm:0
Visibility: 10 mile(s):0
Sky conditions: clear
Temperature: 37.9 F (3.3 C)
Dew Point: 30.0 F (-1.1 C)
Relative Humidity: 72%
Pressure (altimeter): 30.1 in. Hg (1019 hPa)
ob: KIRK 060055Z AUTO 00000KT 10SM CLR 03/M01 A3010 RMK AO2 SLP205 T00331011
cycle: 1

Station Type Date Time Source
KIRK TAF UTC NOAA

Error!

Example: see airport list